sensor_id;sensor_type;location;lat;lon;timestamp;P1;durP1;ratioP1;P2;durP2;ratioP2
33270;SDS011;53180;51.344;6.152;2022-08-02T00:00:57;1.55;;;0.80;;
33270;SDS011;53180;51.344;6.152;2022-08-02T00:03:26;0.80;;;0.73;;
33270;SDS011;53180;51.344;6.152;2022-08-02T00:05:56;0.88;;;0.80;;
33270;SDS011;53180;51.344;6.152;2022-08-02T00:08:24;1.02;;;0.80;;
33270;SDS011;53180;51.344;6.152;2022-08-02T00:10:52;1.00;;;0.90;;
33270;SDS011;53180;51.344;6.152;2022-08-02T00:13:21;0.70;;;0.70;;
33270;SDS011;53180;51.344;6.152;2022-08-02T00:15:50;3.22;;;1.00;;
33270;SDS011;53180;51.344;6.152;2022-08-02T00:18:18;1.20;;;1.00;;
33270;SDS011;53180;51.344;6.152;2022-08-02T00:20:47;0.75;;;0.57;;
33270;SDS011;53180;51.344;6.152;2022-08-02T00:23:16;1.23;;;0.60;;
33270;SDS011;53180;51.344;6.152;2022-08-02T00:25:44;1.83;;;0.80;;
33270;SDS011;53180;51.344;6.152;2022-08-02T00:28:20;1.17;;;0.80;;
33270;SDS011;53180;51.344;6.152;2022-08-02T00:30:55;4.93;;;0.95;;
33270;SDS011;53180;51.344;6.152;2022-08-02T00:33:24;0.82;;;0.70;;
33270;SDS011;53180;51.344;6.152;2022-08-02T00:36:12;1.77;;;0.90;;
33270;SDS011;53180;51.344;6.152;2022-08-02T00:38:41;2.15;;;0.82;;
33270;SDS011;53180;51.344;6.152;2022-08-02T00:41:10;1.50;;;0.90;;
33270;SDS011;53180;51.344;6.152;2022-08-02T00:43:41;2.72;;;1.00;;
33270;SDS011;53180;51.344;6.152;2022-08-02T00:46:12;0.75;;;0.75;;
33270;SDS011;53180;51.344;6.152;2022-08-02T00:48:41;4.22;;;1.08;;
33270;SDS011;53180;51.344;6.152;2022-08-02T00:51:10;1.02;;;0.90;;
33270;SDS011;53180;51.344;6.152;2022-08-02T00:53:39;0.88;;;0.80;;
33270;SDS011;53180;51.344;6.152;2022-08-02T00:56:07;1.73;;;1.10;;
33270;SDS011;53180;51.344;6.152;2022-08-02T00:58:36;1.10;;;0.85;;
33270;SDS011;53180;51.344;6.152;2022-08-02T01:01:04;1.13;;;0.85;;
33270;SDS011;53180;51.344;6.152;2022-08-02T01:03:34;3.60;;;0.90;;
33270;SDS011;53180;51.344;6.152;2022-08-02T01:06:02;1.08;;;0.90;;
33270;SDS011;53180;51.344;6.152;2022-08-02T01:08:38;0.80;;;0.70;;
33270;SDS011;53180;51.344;6.152;2022-08-02T01:11:09;1.77;;;1.08;;
33270;SDS011;53180;51.344;6.152;2022-08-02T01:13:38;1.83;;;1.00;;
33270;SDS011;53180;51.344;6.152;2022-08-02T01:16:09;1.15;;;0.70;;
33270;SDS011;53180;51.344;6.152;2022-08-02T01:18:44;1.63;;;1.13;;
33270;SDS011;53180;51.344;6.152;2022-08-02T01:21:25;2.95;;;0.80;;
33270;SDS011;53180;51.344;6.152;2022-08-02T01:24:20;0.90;;;0.90;;
33270;SDS011;53180;51.344;6.152;2022-08-02T01:27:14;5.05;;;0.90;;
33270;SDS011;53180;51.344;6.152;2022-08-02T01:30:03;1.60;;;0.90;;
33270;SDS011;53180;51.344;6.152;2022-08-02T01:32:34;1.30;;;1.00;;
33270;SDS011;53180;51.344;6.152;2022-08-02T01:35:09;0.90;;;0.80;;
33270;SDS011;53180;51.344;6.152;2022-08-02T01:37:43;2.05;;;1.10;;
33270;SDS011;53180;51.344;6.152;2022-08-02T01:40:17;0.80;;;0.80;;
33270;SDS011;53180;51.344;6.152;2022-08-02T01:42:52;0.88;;;0.80;;
33270;SDS011;53180;51.344;6.152;2022-08-02T01:45:25;2.53;;;1.00;;
33270;SDS011;53180;51.344;6.152;2022-08-02T01:47:57;1.83;;;0.90;;
33270;SDS011;53180;51.344;6.152;2022-08-02T01:50:27;1.48;;;1.00;;
33270;SDS011;53180;51.344;6.152;2022-08-02T01:52:59;1.58;;;1.15;;
33270;SDS011;53180;51.344;6.152;2022-08-02T01:55:33;1.95;;;0.80;;
33270;SDS011;53180;51.344;6.152;2022-08-02T01:58:24;0.75;;;0.75;;
33270;SDS011;53180;51.344;6.152;2022-08-02T02:00:56;1.92;;;1.00;;
33270;SDS011;53180;51.344;6.152;2022-08-02T02:03:26;1.00;;;0.85;;
33270;SDS011;53180;51.344;6.152;2022-08-02T02:05:59;1.10;;;1.00;;
33270;SDS011;53180;51.344;6.152;2022-08-02T02:08:33;0.70;;;0.70;;
33270;SDS011;53180;51.344;6.152;2022-08-02T02:11:05;0.90;;;0.80;;
33270;SDS011;53180;51.344;6.152;2022-08-02T02:13:54;3.22;;;1.20;;
33270;SDS011;53180;51.344;6.152;2022-08-02T02:16:26;1.17;;;1.08;;
33270;SDS011;53180;51.344;6.152;2022-08-02T02:18:57;1.77;;;1.20;;
33270;SDS011;53180;51.344;6.152;2022-08-02T02:23:57;1.40;;;1.05;;
33270;SDS011;53180;51.344;6.152;2022-08-02T02:26:25;1.40;;;1.02;;
33270;SDS011;53180;51.344;6.152;2022-08-02T02:28:57;1.70;;;1.23;;
33270;SDS011;53180;51.344;6.152;2022-08-02T02:34:01;2.10;;;1.15;;
33270;SDS011;53180;51.344;6.152;2022-08-02T02:36:32;0.90;;;0.90;;
33270;SDS011;53180;51.344;6.152;2022-08-02T02:39:02;3.38;;;1.20;;
33270;SDS011;53180;51.344;6.152;2022-08-02T02:41:38;1.20;;;1.00;;
33270;SDS011;53180;51.344;6.152;2022-08-02T02:44:10;2.25;;;1.20;;
33270;SDS011;53180;51.344;6.152;2022-08-02T02:46:44;1.98;;;1.30;;
33270;SDS011;53180;51.344;6.152;2022-08-02T02:49:16;2.05;;;1.40;;
33270;SDS011;53180;51.344;6.152;2022-08-02T02:51:45;2.72;;;1.77;;
33270;SDS011;53180;51.344;6.152;2022-08-02T02:54:15;1.75;;;1.48;;
33270;SDS011;53180;51.344;6.152;2022-08-02T02:56:59;1.70;;;1.25;;
33270;SDS011;53180;51.344;6.152;2022-08-02T02:59:28;1.80;;;1.50;;
33270;SDS011;53180;51.344;6.152;2022-08-02T03:01:58;1.77;;;1.30;;
33270;SDS011;53180;51.344;6.152;2022-08-02T03:04:28;1.33;;;1.23;;
33270;SDS011;53180;51.344;6.152;2022-08-02T03:07:18;1.67;;;1.25;;
33270;SDS011;53180;51.344;6.152;2022-08-02T03:09:46;2.92;;;1.75;;
33270;SDS011;53180;51.344;6.152;2022-08-02T03:12:19;2.33;;;1.48;;
33270;SDS011;53180;51.344;6.152;2022-08-02T03:14:56;2.47;;;1.38;;
33270;SDS011;53180;51.344;6.152;2022-08-02T03:17:26;1.42;;;1.23;;
33270;SDS011;53180;51.344;6.152;2022-08-02T03:20:09;2.88;;;1.42;;
33270;SDS011;53180;51.344;6.152;2022-08-02T03:22:40;1.40;;;1.27;;
33270;SDS011;53180;51.344;6.152;2022-08-02T03:25:09;2.15;;;1.38;;
33270;SDS011;53180;51.344;6.152;2022-08-02T03:27:39;2.67;;;1.40;;
33270;SDS011;53180;51.344;6.152;2022-08-02T03:30:08;2.38;;;1.63;;
33270;SDS011;53180;51.344;6.152;2022-08-02T03:32:40;2.67;;;1.60;;
33270;SDS011;53180;51.344;6.152;2022-08-02T03:35:14;1.70;;;1.40;;
33270;SDS011;53180;51.344;6.152;2022-08-02T03:37:49;2.28;;;1.65;;
33270;SDS011;53180;51.344;6.152;2022-08-02T03:40:20;2.22;;;1.60;;
33270;SDS011;53180;51.344;6.152;2022-08-02T03:42:50;3.63;;;2.03;;
33270;SDS011;53180;51.344;6.152;2022-08-02T03:45:18;4.90;;;2.08;;
33270;SDS011;53180;51.344;6.152;2022-08-02T03:47:48;4.60;;;2.00;;
33270;SDS011;53180;51.344;6.152;2022-08-02T03:50:18;3.72;;;2.00;;
33270;SDS011;53180;51.344;6.152;2022-08-02T03:52:49;3.50;;;1.98;;
33270;SDS011;53180;51.344;6.152;2022-08-02T03:55:18;2.13;;;1.65;;
33270;SDS011;53180;51.344;6.152;2022-08-02T03:57:46;2.50;;;1.40;;
33270;SDS011;53180;51.344;6.152;2022-08-02T04:00:16;1.88;;;1.45;;
33270;SDS011;53180;51.344;6.152;2022-08-02T04:02:48;3.58;;;1.70;;
33270;SDS011;53180;51.344;6.152;2022-08-02T04:05:17;3.50;;;1.73;;
33270;SDS011;53180;51.344;6.152;2022-08-02T04:07:45;2.63;;;1.80;;
33270;SDS011;53180;51.344;6.152;2022-08-02T04:10:34;2.20;;;1.65;;
33270;SDS011;53180;51.344;6.152;2022-08-02T04:13:19;3.17;;;1.40;;
33270;SDS011;53180;51.344;6.152;2022-08-02T04:15:56;1.88;;;1.55;;
33270;SDS011;53180;51.344;6.152;2022-08-02T04:18:33;2.38;;;1.70;;
33270;SDS011;53180;51.344;6.152;2022-08-02T04:21:12;4.82;;;1.90;;
33270;SDS011;53180;51.344;6.152;2022-08-02T04:23:44;1.88;;;1.60;;
33270;SDS011;53180;51.344;6.152;2022-08-02T04:26:14;4.60;;;1.65;;
33270;SDS011;53180;51.344;6.152;2022-08-02T04:28:43;2.95;;;2.05;;
33270;SDS011;53180;51.344;6.152;2022-08-02T04:31:12;3.88;;;2.42;;
33270;SDS011;53180;51.344;6.152;2022-08-02T04:33:43;4.93;;;2.10;;
33270;SDS011;53180;51.344;6.152;2022-08-02T04:36:13;2.95;;;1.88;;
33270;SDS011;53180;51.344;6.152;2022-08-02T04:38:57;4.50;;;2.20;;
33270;SDS011;53180;51.344;6.152;2022-08-02T04:41:35;2.45;;;1.85;;
33270;SDS011;53180;51.344;6.152;2022-08-02T04:44:09;3.45;;;1.95;;
33270;SDS011;53180;51.344;6.152;2022-08-02T04:46:38;3.97;;;2.05;;
33270;SDS011;53180;51.344;6.152;2022-08-02T04:49:09;3.90;;;2.15;;
33270;SDS011;53180;51.344;6.152;2022-08-02T04:51:38;7.90;;;2.50;;
33270;SDS011;53180;51.344;6.152;2022-08-02T04:54:08;3.97;;;2.30;;
33270;SDS011;53180;51.344;6.152;2022-08-02T04:56:37;4.53;;;2.25;;
33270;SDS011;53180;51.344;6.152;2022-08-02T04:59:07;2.45;;;2.03;;
33270;SDS011;53180;51.344;6.152;2022-08-02T05:01:35;3.38;;;1.77;;
33270;SDS011;53180;51.344;6.152;2022-08-02T05:04:04;4.07;;;2.33;;
33270;SDS011;53180;51.344;6.152;2022-08-02T05:06:34;4.78;;;1.98;;
33270;SDS011;53180;51.344;6.152;2022-08-02T05:09:02;2.50;;;1.75;;
33270;SDS011;53180;51.344;6.152;2022-08-02T05:11:31;8.43;;;2.30;;
33270;SDS011;53180;51.344;6.152;2022-08-02T05:14:02;5.53;;;2.20;;
33270;SDS011;53180;51.344;6.152;2022-08-02T05:16:31;4.07;;;2.50;;
33270;SDS011;53180;51.344;6.152;2022-08-02T05:18:59;3.05;;;2.15;;
33270;SDS011;53180;51.344;6.152;2022-08-02T05:21:28;3.95;;;2.33;;
33270;SDS011;53180;51.344;6.152;2022-08-02T05:23:59;4.90;;;2.78;;
33270;SDS011;53180;51.344;6.152;2022-08-02T05:26:27;2.90;;;2.00;;
33270;SDS011;53180;51.344;6.152;2022-08-02T05:28:55;3.88;;;2.53;;
33270;SDS011;53180;51.344;6.152;2022-08-02T05:31:24;2.53;;;2.05;;
33270;SDS011;53180;51.344;6.152;2022-08-02T05:33:52;4.40;;;2.30;;
33270;SDS011;53180;51.344;6.152;2022-08-02T05:36:20;3.60;;;2.33;;
33270;SDS011;53180;51.344;6.152;2022-08-02T05:38:49;3.13;;;2.22;;
33270;SDS011;53180;51.344;6.152;2022-08-02T05:41:26;9.38;;;2.22;;
33270;SDS011;53180;51.344;6.152;2022-08-02T05:43:54;3.13;;;2.53;;
33270;SDS011;53180;51.344;6.152;2022-08-02T05:46:23;5.80;;;2.70;;
33270;SDS011;53180;51.344;6.152;2022-08-02T05:48:51;4.18;;;2.50;;
33270;SDS011;53180;51.344;6.152;2022-08-02T05:51:21;3.55;;;2.20;;
33270;SDS011;53180;51.344;6.152;2022-08-02T05:53:59;6.93;;;2.65;;
33270;SDS011;53180;51.344;6.152;2022-08-02T05:56:41;2.70;;;2.17;;
33270;SDS011;53180;51.344;6.152;2022-08-02T05:59:16;4.20;;;2.00;;
33270;SDS011;53180;51.344;6.152;2022-08-02T06:01:55;2.80;;;2.03;;
33270;SDS011;53180;51.344;6.152;2022-08-02T06:04:25;8.23;;;2.63;;
33270;SDS011;53180;51.344;6.152;2022-08-02T06:07:00;3.63;;;2.28;;
33270;SDS011;53180;51.344;6.152;2022-08-02T06:09:31;2.08;;;1.80;;
33270;SDS011;53180;51.344;6.152;2022-08-02T06:12:02;3.53;;;2.03;;
33270;SDS011;53180;51.344;6.152;2022-08-02T06:14:32;2.88;;;1.90;;
33270;SDS011;53180;51.344;6.152;2022-08-02T06:17:02;5.20;;;2.30;;
33270;SDS011;53180;51.344;6.152;2022-08-02T06:19:31;10.47;;;2.13;;
33270;SDS011;53180;51.344;6.152;2022-08-02T06:22:17;2.72;;;2.08;;
33270;SDS011;53180;51.344;6.152;2022-08-02T06:25:02;4.00;;;2.50;;
33270;SDS011;53180;51.344;6.152;2022-08-02T06:27:53;3.13;;;2.38;;
33270;SDS011;53180;51.344;6.152;2022-08-02T06:30:22;2.70;;;2.28;;
33270;SDS011;53180;51.344;6.152;2022-08-02T06:32:50;3.15;;;2.22;;
33270;SDS011;53180;51.344;6.152;2022-08-02T06:35:19;6.70;;;2.55;;
33270;SDS011;53180;51.344;6.152;2022-08-02T06:37:50;4.90;;;3.00;;
33270;SDS011;53180;51.344;6.152;2022-08-02T06:40:25;3.20;;;2.90;;
33270;SDS011;53180;51.344;6.152;2022-08-02T06:43:03;6.72;;;3.40;;
33270;SDS011;53180;51.344;6.152;2022-08-02T06:45:38;4.07;;;3.58;;
33270;SDS011;53180;51.344;6.152;2022-08-02T06:48:07;4.65;;;3.80;;
33270;SDS011;53180;51.344;6.152;2022-08-02T06:50:36;4.63;;;4.03;;
33270;SDS011;53180;51.344;6.152;2022-08-02T06:53:07;5.43;;;4.05;;
33270;SDS011;53180;51.344;6.152;2022-08-02T06:55:36;3.33;;;3.03;;
33270;SDS011;53180;51.344;6.152;2022-08-02T06:58:11;3.83;;;3.42;;
33270;SDS011;53180;51.344;6.152;2022-08-02T07:00:40;6.03;;;3.42;;
33270;SDS011;53180;51.344;6.152;2022-08-02T07:03:09;3.60;;;3.30;;
33270;SDS011;53180;51.344;6.152;2022-08-02T07:05:39;4.15;;;3.20;;
33270;SDS011;53180;51.344;6.152;2022-08-02T07:08:08;4.63;;;4.15;;
33270;SDS011;53180;51.344;6.152;2022-08-02T07:10:37;4.07;;;3.20;;
33270;SDS011;53180;51.344;6.152;2022-08-02T07:13:05;5.28;;;4.18;;
33270;SDS011;53180;51.344;6.152;2022-08-02T07:15:35;3.38;;;3.08;;
33270;SDS011;53180;51.344;6.152;2022-08-02T07:18:14;7.03;;;3.35;;
33270;SDS011;53180;51.344;6.152;2022-08-02T07:20:42;3.97;;;3.42;;
33270;SDS011;53180;51.344;6.152;2022-08-02T07:23:11;3.55;;;3.00;;
33270;SDS011;53180;51.344;6.152;2022-08-02T07:25:40;3.85;;;3.30;;
33270;SDS011;53180;51.344;6.152;2022-08-02T07:28:29;4.13;;;2.97;;
33270;SDS011;53180;51.344;6.152;2022-08-02T07:30:58;3.38;;;2.60;;
33270;SDS011;53180;51.344;6.152;2022-08-02T07:33:38;4.55;;;3.38;;
33270;SDS011;53180;51.344;6.152;2022-08-02T07:36:12;5.05;;;3.25;;
33270;SDS011;53180;51.344;6.152;2022-08-02T07:38:48;4.47;;;3.10;;
33270;SDS011;53180;51.344;6.152;2022-08-02T07:41:18;5.05;;;3.58;;
33270;SDS011;53180;51.344;6.152;2022-08-02T07:43:48;4.57;;;3.00;;
33270;SDS011;53180;51.344;6.152;2022-08-02T07:46:17;3.95;;;3.05;;
33270;SDS011;53180;51.344;6.152;2022-08-02T07:48:46;8.93;;;3.63;;
33270;SDS011;53180;51.344;6.152;2022-08-02T07:51:15;3.70;;;3.38;;
33270;SDS011;53180;51.344;6.152;2022-08-02T07:53:43;4.03;;;3.47;;
33270;SDS011;53180;51.344;6.152;2022-08-02T07:56:27;5.13;;;3.97;;
33270;SDS011;53180;51.344;6.152;2022-08-02T07:58:55;4.47;;;4.07;;
33270;SDS011;53180;51.344;6.152;2022-08-02T08:01:25;6.05;;;4.18;;
33270;SDS011;53180;51.344;6.152;2022-08-02T08:03:54;5.65;;;4.45;;
33270;SDS011;53180;51.344;6.152;2022-08-02T08:06:22;4.95;;;4.55;;
33270;SDS011;53180;51.344;6.152;2022-08-02T08:08:54;4.95;;;4.55;;
33270;SDS011;53180;51.344;6.152;2022-08-02T08:11:22;6.07;;;5.57;;
33270;SDS011;53180;51.344;6.152;2022-08-02T08:13:52;6.50;;;6.00;;
33270;SDS011;53180;51.344;6.152;2022-08-02T08:16:20;7.40;;;6.20;;
33270;SDS011;53180;51.344;6.152;2022-08-02T08:18:52;7.70;;;7.20;;
33270;SDS011;53180;51.344;6.152;2022-08-02T08:21:21;8.77;;;8.18;;
33270;SDS011;53180;51.344;6.152;2022-08-02T08:23:49;7.80;;;7.20;;
33270;SDS011;53180;51.344;6.152;2022-08-02T08:26:17;8.20;;;7.60;;
33270;SDS011;53180;51.344;6.152;2022-08-02T08:28:46;8.68;;;8.07;;
33270;SDS011;53180;51.344;6.152;2022-08-02T08:31:14;9.98;;;9.30;;
33270;SDS011;53180;51.344;6.152;2022-08-02T08:33:42;13.63;;;12.52;;
33270;SDS011;53180;51.344;6.152;2022-08-02T08:36:12;18.42;;;16.65;;
33270;SDS011;53180;51.344;6.152;2022-08-02T08:38:41;13.57;;;12.70;;
33270;SDS011;53180;51.344;6.152;2022-08-02T08:41:10;14.98;;;13.77;;
33270;SDS011;53180;51.344;6.152;2022-08-02T08:43:38;19.25;;;17.98;;
33270;SDS011;53180;51.344;6.152;2022-08-02T08:46:07;19.25;;;18.00;;
33270;SDS011;53180;51.344;6.152;2022-08-02T08:48:39;16.15;;;15.05;;
33270;SDS011;53180;51.344;6.152;2022-08-02T08:51:12;21.15;;;19.75;;
33270;SDS011;53180;51.344;6.152;2022-08-02T08:53:48;28.67;;;26.98;;
33270;SDS011;53180;51.344;6.152;2022-08-02T08:56:20;31.33;;;29.05;;
33270;SDS011;53180;51.344;6.152;2022-08-02T08:58:49;39.92;;;37.53;;
33270;SDS011;53180;51.344;6.152;2022-08-02T09:01:17;40.65;;;38.25;;
33270;SDS011;53180;51.344;6.152;2022-08-02T09:03:46;46.22;;;43.05;;
33270;SDS011;53180;51.344;6.152;2022-08-02T09:06:16;54.20;;;51.03;;
33270;SDS011;53180;51.344;6.152;2022-08-02T09:08:45;54.35;;;51.20;;
33270;SDS011;53180;51.344;6.152;2022-08-02T09:11:15;51.72;;;48.67;;
33270;SDS011;53180;51.344;6.152;2022-08-02T09:13:48;56.67;;;53.35;;
33270;SDS011;53180;51.344;6.152;2022-08-02T09:16:30;69.45;;;65.45;;
33270;SDS011;53180;51.344;6.152;2022-08-02T09:21:45;50.55;;;47.55;;
33270;SDS011;53180;51.344;6.152;2022-08-02T09:24:15;57.63;;;54.22;;
33270;SDS011;53180;51.344;6.152;2022-08-02T09:26:45;64.88;;;61.05;;
33270;SDS011;53180;51.344;6.152;2022-08-02T09:29:15;65.13;;;61.42;;
33270;SDS011;53180;51.344;6.152;2022-08-02T09:31:46;79.18;;;74.68;;
33270;SDS011;53180;51.344;6.152;2022-08-02T09:34:16;93.67;;;88.30;;
33270;SDS011;53180;51.344;6.152;2022-08-02T09:36:47;104.40;;;98.45;;
33270;SDS011;53180;51.344;6.152;2022-08-02T09:39:20;107.50;;;101.43;;
33270;SDS011;53180;51.344;6.152;2022-08-02T09:41:51;114.35;;;107.78;;
33270;SDS011;53180;51.344;6.152;2022-08-02T09:44:36;112.85;;;106.45;;
33270;SDS011;53180;51.344;6.152;2022-08-02T09:47:12;107.40;;;101.32;;
33270;SDS011;53180;51.344;6.152;2022-08-02T09:49:44;99.65;;;93.93;;
33270;SDS011;53180;51.344;6.152;2022-08-02T09:52:22;99.25;;;93.50;;
33270;SDS011;53180;51.344;6.152;2022-08-02T09:55:08;98.78;;;93.13;;
33270;SDS011;53180;51.344;6.152;2022-08-02T09:57:38;107.85;;;101.57;;
33270;SDS011;53180;51.344;6.152;2022-08-02T10:00:07;91.03;;;85.63;;
33270;SDS011;53180;51.344;6.152;2022-08-02T10:05:46;91.75;;;85.95;;
33270;SDS011;53180;51.344;6.152;2022-08-02T10:08:23;107.95;;;100.85;;
33270;SDS011;53180;51.344;6.152;2022-08-02T10:10:52;112.60;;;106.15;;
33270;SDS011;53180;51.344;6.152;2022-08-02T10:13:27;92.47;;;87.25;;
33270;SDS011;53180;51.344;6.152;2022-08-02T10:15:57;73.38;;;69.10;;
33270;SDS011;53180;51.344;6.152;2022-08-02T10:18:25;92.65;;;87.35;;
33270;SDS011;53180;51.344;6.152;2022-08-02T10:21:05;82.07;;;77.32;;
33270;SDS011;53180;51.344;6.152;2022-08-02T10:23:39;46.20;;;43.53;;
33270;SDS011;53180;51.344;6.152;2022-08-02T10:26:14;79.65;;;75.07;;
33270;SDS011;53180;51.344;6.152;2022-08-02T10:28:45;61.53;;;58.05;;
33270;SDS011;53180;51.344;6.152;2022-08-02T10:31:17;53.75;;;50.55;;
33270;SDS011;53180;51.344;6.152;2022-08-02T10:33:50;53.03;;;50.00;;
33270;SDS011;53180;51.344;6.152;2022-08-02T10:36:21;48.20;;;45.30;;
33270;SDS011;53180;51.344;6.152;2022-08-02T10:38:53;36.35;;;34.25;;
33270;SDS011;53180;51.344;6.152;2022-08-02T10:41:39;46.42;;;43.75;;
33270;SDS011;53180;51.344;6.152;2022-08-02T10:44:24;53.28;;;50.22;;
33270;SDS011;53180;51.344;6.152;2022-08-02T10:49:51;56.55;;;53.33;;
33270;SDS011;53180;51.344;6.152;2022-08-02T10:52:21;106.68;;;100.68;;
33270;SDS011;53180;51.344;6.152;2022-08-02T10:54:54;72.47;;;68.35;;
33270;SDS011;53180;51.344;6.152;2022-08-02T10:57:26;28.77;;;27.02;;
33270;SDS011;53180;51.344;6.152;2022-08-02T10:59:57;46.30;;;43.40;;
33270;SDS011;53180;51.344;6.152;2022-08-02T11:02:34;26.65;;;25.08;;
33270;SDS011;53180;51.344;6.152;2022-08-02T11:05:10;20.77;;;19.48;;
33270;SDS011;53180;51.344;6.152;2022-08-02T11:07:44;48.47;;;45.38;;
33270;SDS011;53180;51.344;6.152;2022-08-02T11:10:32;38.10;;;35.85;;
33270;SDS011;53180;51.344;6.152;2022-08-02T11:13:09;26.35;;;24.75;;
33270;SDS011;53180;51.344;6.152;2022-08-02T11:15:47;9.52;;;8.93;;
33270;SDS011;53180;51.344;6.152;2022-08-02T11:18:22;10.50;;;9.68;;
33270;SDS011;53180;51.344;6.152;2022-08-02T11:21:32;13.02;;;12.05;;
33270;SDS011;53180;51.344;6.152;2022-08-02T11:26:56;16.65;;;15.65;;
33270;SDS011;53180;51.344;6.152;2022-08-02T11:29:32;5.10;;;4.57;;
33270;SDS011;53180;51.344;6.152;2022-08-02T11:32:04;33.97;;;31.98;;
33270;SDS011;53180;51.344;6.152;2022-08-02T11:34:34;57.53;;;53.78;;
33270;SDS011;53180;51.344;6.152;2022-08-02T11:37:03;19.83;;;18.58;;
33270;SDS011;53180;51.344;6.152;2022-08-02T11:39:32;50.50;;;47.60;;
33270;SDS011;53180;51.344;6.152;2022-08-02T11:42:02;52.42;;;49.38;;
33270;SDS011;53180;51.344;6.152;2022-08-02T11:44:38;128.32;;;120.95;;
33270;SDS011;53180;51.344;6.152;2022-08-02T11:47:08;36.75;;;34.63;;
33270;SDS011;53180;51.344;6.152;2022-08-02T11:49:36;69.88;;;65.40;;
33270;SDS011;53180;51.344;6.152;2022-08-02T11:52:05;41.75;;;39.25;;
33270;SDS011;53180;51.344;6.152;2022-08-02T11:54:37;49.00;;;46.15;;
33270;SDS011;53180;51.344;6.152;2022-08-02T11:57:13;26.05;;;24.55;;
33270;SDS011;53180;51.344;6.152;2022-08-02T11:59:46;36.25;;;34.17;;
33270;SDS011;53180;51.344;6.152;2022-08-02T12:02:16;27.10;;;25.50;;
33270;SDS011;53180;51.344;6.152;2022-08-02T12:04:56;22.15;;;20.80;;
33270;SDS011;53180;51.344;6.152;2022-08-02T12:07:28;13.23;;;12.40;;
33270;SDS011;53180;51.344;6.152;2022-08-02T12:10:02;11.35;;;10.55;;
33270;SDS011;53180;51.344;6.152;2022-08-02T12:12:46;24.45;;;23.02;;
33270;SDS011;53180;51.344;6.152;2022-08-02T12:15:29;10.45;;;9.57;;
33270;SDS011;53180;51.344;6.152;2022-08-02T12:18:02;42.20;;;39.65;;
33270;SDS011;53180;51.344;6.152;2022-08-02T12:20:53;21.58;;;20.30;;
33270;SDS011;53180;51.344;6.152;2022-08-02T12:23:22;36.08;;;33.97;;
33270;SDS011;53180;51.344;6.152;2022-08-02T12:26:01;34.15;;;32.15;;
33270;SDS011;53180;51.344;6.152;2022-08-02T12:28:34;7.85;;;7.35;;
33270;SDS011;53180;51.344;6.152;2022-08-02T12:31:05;13.57;;;12.77;;
33270;SDS011;53180;51.344;6.152;2022-08-02T12:34:09;7.88;;;7.38;;
33270;SDS011;53180;51.344;6.152;2022-08-02T12:36:42;10.82;;;10.15;;
33270;SDS011;53180;51.344;6.152;2022-08-02T12:39:12;10.70;;;10.07;;
33270;SDS011;53180;51.344;6.152;2022-08-02T12:41:41;15.30;;;14.40;;
33270;SDS011;53180;51.344;6.152;2022-08-02T12:44:20;10.38;;;9.77;;
33270;SDS011;53180;51.344;6.152;2022-08-02T12:46:56;15.77;;;14.80;;
33270;SDS011;53180;51.344;6.152;2022-08-02T12:51:58;4.90;;;4.60;;
33270;SDS011;53180;51.344;6.152;2022-08-02T12:54:37;9.75;;;9.15;;
33270;SDS011;53180;51.344;6.152;2022-08-02T12:57:09;25.15;;;23.70;;
33270;SDS011;53180;51.344;6.152;2022-08-02T12:59:39;16.13;;;15.02;;
33270;SDS011;53180;51.344;6.152;2022-08-02T13:02:11;18.35;;;17.30;;
33270;SDS011;53180;51.344;6.152;2022-08-02T13:04:44;25.55;;;24.05;;
33270;SDS011;53180;51.344;6.152;2022-08-02T13:07:16;30.90;;;29.10;;
33270;SDS011;53180;51.344;6.152;2022-08-02T13:09:45;36.70;;;34.60;;
33270;SDS011;53180;51.344;6.152;2022-08-02T13:12:15;48.45;;;45.60;;
33270;SDS011;53180;51.344;6.152;2022-08-02T13:14:43;26.33;;;24.67;;
33270;SDS011;53180;51.344;6.152;2022-08-02T13:17:12;24.67;;;23.23;;
33270;SDS011;53180;51.344;6.152;2022-08-02T13:19:40;10.15;;;9.55;;
33270;SDS011;53180;51.344;6.152;2022-08-02T13:22:10;16.08;;;15.13;;
33270;SDS011;53180;51.344;6.152;2022-08-02T13:24:39;13.68;;;12.82;;
33270;SDS011;53180;51.344;6.152;2022-08-02T13:27:21;13.07;;;12.27;;
33270;SDS011;53180;51.344;6.152;2022-08-02T13:29:51;7.28;;;6.78;;
33270;SDS011;53180;51.344;6.152;2022-08-02T13:34:50;4.00;;;3.67;;
33270;SDS011;53180;51.344;6.152;2022-08-02T13:37:20;3.05;;;2.85;;
33270;SDS011;53180;51.344;6.152;2022-08-02T13:39:48;3.88;;;3.67;;
33270;SDS011;53180;51.344;6.152;2022-08-02T13:42:37;4.40;;;4.03;;
33270;SDS011;53180;51.344;6.152;2022-08-02T13:45:06;6.05;;;5.63;;
33270;SDS011;53180;51.344;6.152;2022-08-02T13:47:39;3.75;;;3.55;;
33270;SDS011;53180;51.344;6.152;2022-08-02T13:50:28;5.85;;;5.50;;
33270;SDS011;53180;51.344;6.152;2022-08-02T13:52:58;8.63;;;8.02;;
33270;SDS011;53180;51.344;6.152;2022-08-02T13:55:27;2.30;;;2.20;;
33270;SDS011;53180;51.344;6.152;2022-08-02T13:57:55;2.92;;;2.72;;
33270;SDS011;53180;51.344;6.152;2022-08-02T14:00:25;2.28;;;2.08;;
33270;SDS011;53180;51.344;6.152;2022-08-02T14:03:01;2.10;;;1.98;;
33270;SDS011;53180;51.344;6.152;2022-08-02T14:05:32;2.40;;;2.20;;
33270;SDS011;53180;51.344;6.152;2022-08-02T14:08:15;4.18;;;3.88;;
33270;SDS011;53180;51.344;6.152;2022-08-02T14:10:45;6.50;;;6.10;;
33270;SDS011;53180;51.344;6.152;2022-08-02T14:13:14;3.97;;;3.78;;
33270;SDS011;53180;51.344;6.152;2022-08-02T14:15:42;7.35;;;6.85;;
33270;SDS011;53180;51.344;6.152;2022-08-02T14:18:11;5.22;;;4.82;;
33270;SDS011;53180;51.344;6.152;2022-08-02T14:20:40;4.85;;;4.55;;
33270;SDS011;53180;51.344;6.152;2022-08-02T14:23:10;8.10;;;7.60;;
33270;SDS011;53180;51.344;6.152;2022-08-02T14:25:40;4.78;;;4.40;;
33270;SDS011;53180;51.344;6.152;2022-08-02T14:28:09;12.75;;;11.95;;
33270;SDS011;53180;51.344;6.152;2022-08-02T14:30:37;18.48;;;17.40;;
33270;SDS011;53180;51.344;6.152;2022-08-02T14:33:06;12.85;;;12.05;;
33270;SDS011;53180;51.344;6.152;2022-08-02T14:35:34;15.00;;;14.10;;
33270;SDS011;53180;51.344;6.152;2022-08-02T14:38:02;21.35;;;20.05;;
33270;SDS011;53180;51.344;6.152;2022-08-02T14:40:32;12.98;;;12.20;;
33270;SDS011;53180;51.344;6.152;2022-08-02T14:43:02;23.92;;;22.58;;
33270;SDS011;53180;51.344;6.152;2022-08-02T14:45:33;30.00;;;28.27;;
33270;SDS011;53180;51.344;6.152;2022-08-02T14:48:06;30.83;;;29.05;;
33270;SDS011;53180;51.344;6.152;2022-08-02T14:53:05;19.65;;;18.45;;
33270;SDS011;53180;51.344;6.152;2022-08-02T14:55:38;27.17;;;25.63;;
33270;SDS011;53180;51.344;6.152;2022-08-02T14:58:09;25.42;;;24.00;;
33270;SDS011;53180;51.344;6.152;2022-08-02T15:00:38;27.33;;;25.70;;
33270;SDS011;53180;51.344;6.152;2022-08-02T15:03:09;21.35;;;20.15;;
33270;SDS011;53180;51.344;6.152;2022-08-02T15:05:38;16.13;;;15.13;;
33270;SDS011;53180;51.344;6.152;2022-08-02T15:08:06;24.42;;;23.02;;
33270;SDS011;53180;51.344;6.152;2022-08-02T15:10:35;15.85;;;14.85;;
33270;SDS011;53180;51.344;6.152;2022-08-02T15:13:03;11.43;;;10.73;;
33270;SDS011;53180;51.344;6.152;2022-08-02T15:15:34;24.95;;;23.52;;
33270;SDS011;53180;51.344;6.152;2022-08-02T15:18:09;16.08;;;15.07;;
33270;SDS011;53180;51.344;6.152;2022-08-02T15:20:39;9.15;;;8.63;;
33270;SDS011;53180;51.344;6.152;2022-08-02T15:23:22;15.30;;;14.27;;
33270;SDS011;53180;51.344;6.152;2022-08-02T15:26:04;9.85;;;9.25;;
33270;SDS011;53180;51.344;6.152;2022-08-02T15:28:33;10.63;;;10.02;;
33270;SDS011;53180;51.344;6.152;2022-08-02T15:31:03;18.35;;;17.25;;
33270;SDS011;53180;51.344;6.152;2022-08-02T15:33:31;23.50;;;22.20;;